Atlanta, GA

5:14 PM EDT on August 30, 2014 (GMT -0400)
Buckhead Forest | Change Station
CLOSE
Current Station
Personal Weather Station
Location: Atlanta, GA
Elevation: 1010 ft
Nearby Weather Stations
Active Advisory: Special Statement

Elev 1010 ft 33.84 °N, 84.38 °W | Updated 4 seconds ago

Partly Cloudy
Partly Cloudy
81.1 °F
Feels Like 86 °F
N
1.0
Wind Variable Wind from SSW
Gusts 4.0 mph

Today
High -- | Low -- °F
--% Chance of Precip.
Yesterday
High -- | Low -- °F
Precip. -- in
7:09 AM 8:05 PM
Waxing Crescent, 24% visible
Pressure 30.02 in
Visibility 10.0 miles
Clouds Few 8500 ft
Heat Index 86 °F
Dew Point 73 °F
Humidity 76%
Rainfall 0.00 in
Snow Depth Not available.
UV 0.0 out of 12
Pollen 8.30 out of 12
Air Quality Not available.
Flu Activity Not available.
METAR KPDK 302053Z 20003KT 10SM FEW085 32/20 A3008 RMK AO2 SLP166 T03170200 56022

More Conditions Fewer Conditions

Pressure 30.02 in
Visibility 10.0 miles
Clouds Few 8500 ft
Heat Index 86 °F
Dew Point 73 °F
Humidity 76%
Rainfall 0.00 in
Snow Depth Not available.
UV 0.0 out of 12
Pollen 8.30 out of 12
Air Quality Not available.
Flu Activity Not available.
METAR KPDK 302053Z 20003KT 10SM FEW085 32/20 A3008 RMK AO2 SLP166 T03170200 56022

More Conditions Fewer Conditions

10-Day Weather Forecast

Almanac

Astronomy

Aug. 30, 2014 Rise Set
Actual Time 7:09 AM EDT 8:05 PM EDT
Civil Twilight 6:44 AM EDT 8:31 PM EDT
Nautical Twilight 6:14 AM EDT 9:01 PM EDT
Astronomical Twilight 5:42 AM EDT 9:32 PM EDT
Moon 11:41 AM EDT 10:55 PM EDT
Length of Visible Light 13h 46m
Length of Day
12h 55m
Tomorrow will be 2m 1s shorter.
Waxing Crescent, 24% of the Moon is Illuminated
Today
Waxing Crescent
Sep 2
First Quarter
Sep 8
Full
Sep 15
Last Quarter
Sep 24
New

Today's Extremes

State Highs State Lows

Community

WunderPhotos

Upload Photos

1,748,634 photos uploaded!

WunderBlogs® & News

Nearby

Air Quality

  Air Quality AQ Index Pollutant
Yesterday Good
PM10
Saturday Moderate
PM2.5
Saturday Good
OZONE
Sunday Moderate
OZONE
Sunday Moderate
PM2.5

Snow Depth

Station Depth Elevation
No new snow has been reported.

Earthquake Activity

City Distance Mag. Time & Date
No recent earthquake activity has been reported nearby.
Minimum magnitude displayed is 2.5.

Coastal Water Temperatures

Place Temperature
No Stations Reporting

Nearby Weather Stations